Time;durP1;ratioP1;P1;durP2;ratioP2;P2;SDS_P1;SDS_P2;PMS_P1;PMS_P2;Temp;Humidity;BMP_temperature;BMP_pressure;BME280_temperature;BME280_humidity;BME280_pressure;Samples;Min_cycle;Max_cycle;Signal;HPM_P1;HPM_P2
2023/05/21 00:00:47;;;;;;;2.45;1.90;;;16.00;64.90;;;;;;5068607;28;20099;-70
2023/05/21 00:03:16;;;;;;;2.17;1.98;;;16.00;64.80;;;;;;5069807;28;20126;-68
2023/05/21 00:05:46;;;;;;;2.00;1.80;;;16.00;64.80;;;;;;5068891;28;20032;-68
2023/05/21 00:08:13;;;;;;;2.08;1.88;;;16.00;64.70;;;;;;5069197;28;20074;-68
2023/05/21 00:10:38;;;;;;;3.50;2.55;;;16.10;64.80;;;;;;5069158;28;20474;-68
2023/05/21 00:13:04;;;;;;;3.38;2.03;;;16.00;64.90;;;;;;5069824;28;20032;-69
2023/05/21 00:15:29;;;;;;;2.65;2.10;;;16.00;65.00;;;;;;5070223;28;20035;-69
2023/05/21 00:17:55;;;;;;;4.10;2.10;;;16.00;65.10;;;;;;5069556;28;20029;-68
2023/05/21 00:20:20;;;;;;;3.20;2.30;;;16.00;65.30;;;;;;5070420;28;20025;-69
2023/05/21 00:22:47;;;;;;;4.45;2.80;;;16.00;66.10;;;;;;5071046;28;20013;-71
2023/05/21 00:25:12;;;;;;;2.35;2.10;;;16.00;65.50;;;;;;5069307;28;20095;-70
2023/05/21 00:27:38;;;;;;;2.40;1.98;;;16.00;65.60;;;;;;5070459;28;20104;-69
2023/05/21 00:30:04;;;;;;;3.03;2.45;;;16.00;65.60;;;;;;5068866;28;20096;-70
2023/05/21 00:32:29;;;;;;;2.25;2.05;;;16.00;65.70;;;;;;5069602;28;20051;-68
2023/05/21 00:34:57;;;;;;;2.95;2.22;;;16.00;65.70;;;;;;5069058;28;20493;-69
2023/05/21 00:37:23;;;;;;;3.47;2.45;;;16.10;65.80;;;;;;5068750;28;20874;-71
2023/05/21 00:39:49;;;;;;;4.05;2.47;;;16.10;65.80;;;;;;5069594;28;20624;-71
2023/05/21 00:42:17;;;;;;;2.97;2.42;;;16.10;65.90;;;;;;5069636;28;20043;-70
2023/05/21 00:44:44;;;;;;;2.97;2.40;;;16.10;66.00;;;;;;5068127;28;20025;-69
2023/05/21 00:47:11;;;;;;;3.25;2.42;;;16.10;66.10;;;;;;5068849;28;20020;-69
2023/05/21 00:49:36;;;;;;;3.15;2.30;;;16.10;66.10;;;;;;5070084;28;20100;-68
2023/05/21 00:52:02;;;;;;;2.70;2.20;;;16.10;66.40;;;;;;5069271;28;20107;-69
2023/05/21 00:54:28;;;;;;;3.75;2.40;;;16.10;66.40;;;;;;5067362;28;20042;-67
2023/05/21 00:56:55;;;;;;;3.25;2.55;;;16.10;66.50;;;;;;5069770;28;20032;-68
2023/05/21 00:59:20;;;;;;;2.80;2.30;;;16.10;66.50;;;;;;5067979;28;20035;-67
2023/05/21 01:01:52;;;;;;;5.13;2.60;;;16.10;66.60;;;;;;5068709;28;20017;-69
2023/05/21 01:04:19;;;;;;;;;;;16.00;66.60;;;;;;5070354;28;20025;-69
2023/05/21 01:06:45;;;;;;;2.95;2.42;;;16.10;66.70;;;;;;5069284;28;19916;-68
2023/05/21 01:09:10;;;;;;;2.72;2.25;;;16.00;66.80;;;;;;5070726;28;20104;-69
2023/05/21 01:11:39;;;;;;;3.28;2.30;;;16.00;66.80;;;;;;5069377;28;20075;-70
2023/05/21 01:14:08;;;;;;;4.97;2.70;;;16.00;66.80;;;;;;5070793;28;20024;-68
2023/05/21 01:16:36;;;;;;;3.38;2.30;;;16.00;67.00;;;;;;5093016;28;20518;-70
2023/05/21 01:19:03;;;;;;;3.50;2.70;;;16.00;67.10;;;;;;5083441;28;20658;-69
2023/05/21 01:21:29;;;;;;;3.42;2.50;;;16.00;67.20;;;;;;5076455;28;20443;-69
2023/05/21 01:23:55;;;;;;;3.17;2.50;;;16.00;67.30;;;;;;5087124;28;20028;-68
2023/05/21 01:26:21;;;;;;;3.00;2.58;;;16.00;67.50;;;;;;5072522;28;20036;-70
2023/05/21 01:28:46;;;;;;;4.65;2.75;;;16.00;67.60;;;;;;5071291;28;20032;-69
2023/05/21 01:31:32;;;;;;;3.15;2.50;;;16.00;67.70;;;;;;5072386;28;20032;-68
2023/05/21 01:34:01;;;;;;;4.43;2.53;;;16.00;67.70;;;;;;5079347;28;20020;-70
2023/05/21 01:36:34;;;;;;;3.60;2.70;;;16.00;68.00;;;;;;5073095;28;20102;-68
2023/05/21 01:39:08;;;;;;;3.35;2.70;;;16.00;68.00;;;;;;5079940;28;20027;-71
2023/05/21 01:41:37;;;;;;;3.33;2.97;;;15.90;68.10;;;;;;5072881;28;20033;-69
2023/05/21 01:44:06;;;;;;;3.70;2.63;;;15.90;68.30;;;;;;5076297;28;20048;-69
2023/05/21 01:46:35;;;;;;;5.15;2.85;;;15.90;68.20;;;;;;5071572;28;20982;-69
2023/05/21 01:49:01;;;;;;;3.20;2.90;;;15.90;68.40;;;;;;5076447;28;20020;-68
2023/05/21 01:51:27;;;;;;;4.13;2.80;;;15.90;68.40;;;;;;5058349;28;20153;-69
2023/05/21 01:53:52;;;;;;;4.20;3.22;;;15.90;68.40;;;;;;5075364;28;20844;-69
2023/05/21 01:56:18;;;;;;;4.65;3.28;;;16.00;68.60;;;;;;5074175;28;20648;-69
2023/05/21 01:58:44;;;;;;;3.35;2.88;;;15.90;68.60;;;;;;5074384;28;20029;-69
2023/05/21 02:01:10;;;;;;;4.20;3.30;;;16.00;68.70;;;;;;5082618;28;20021;-69
2023/05/21 02:03:37;;;;;;;3.67;2.75;;;15.90;68.80;;;;;;5070838;28;20012;-68
2023/05/21 02:06:02;;;;;;;4.95;3.20;;;15.80;68.90;;;;;;5072593;28;20051;-69
2023/05/21 02:08:28;;;;;;;4.57;3.13;;;15.90;69.20;;;;;;5073780;28;20461;-68
2023/05/21 02:10:54;;;;;;;4.57;3.38;;;15.80;69.40;;;;;;5073531;28;20060;-68
2023/05/21 02:13:21;;;;;;;3.85;2.90;;;15.80;69.50;;;;;;5072544;28;20024;-69
2023/05/21 02:15:47;;;;;;;3.78;3.15;;;15.80;69.60;;;;;;5075423;28;20032;-68
2023/05/21 02:18:17;;;;;;;3.65;2.95;;;15.80;69.60;;;;;;5072213;28;20031;-69
2023/05/21 02:20:42;;;;;;;5.65;3.63;;;15.70;69.60;;;;;;5072116;28;20070;-68
2023/05/21 02:23:08;;;;;;;4.78;3.42;;;15.70;69.90;;;;;;5070803;28;20375;-68
2023/05/21 02:25:34;;;;;;;5.03;3.60;;;15.70;70.20;;;;;;5073372;28;20033;-71
2023/05/21 02:27:59;;;;;;;4.78;3.20;;;15.60;70.20;;;;;;5073951;28;20036;-67
2023/05/21 02:30:25;;;;;;;4.95;3.38;;;15.60;70.70;;;;;;5072180;28;20380;-67
2023/05/21 02:32:51;;;;;;;4.30;3.10;;;15.60;70.60;;;;;;5075879;28;20060;-68
2023/05/21 02:35:17;;;;;;;3.70;3.10;;;15.60;70.60;;;;;;5074104;28;20028;-68
2023/05/21 02:37:43;;;;;;;4.18;3.30;;;15.60;70.80;;;;;;5070756;28;20411;-68
2023/05/21 02:40:09;;;;;;;3.90;3.40;;;15.60;70.90;;;;;;5073101;28;20375;-70
2023/05/21 02:42:38;;;;;;;3.65;3.10;;;15.60;71.00;;;;;;5071385;28;20050;-66
2023/05/21 02:45:07;;;;;;;4.60;3.42;;;15.50;71.00;;;;;;5083050;28;20017;-67
2023/05/21 02:47:33;;;;;;;4.13;3.20;;;15.60;71.10;;;;;;5069525;28;20039;-67
2023/05/21 02:49:59;;;;;;;4.95;3.50;;;15.50;71.20;;;;;;5081775;28;20017;-67
2023/05/21 02:52:25;;;;;;;4.25;3.50;;;15.50;71.20;;;;;;5071287;28;20029;-69
2023/05/21 02:54:51;;;;;;;3.92;3.05;;;15.50;71.30;;;;;;5074718;28;20567;-71
2023/05/21 02:57:17;;;;;;;4.07;3.53;;;15.50;71.40;;;;;;5072202;28;20055;-69
2023/05/21 02:59:44;;;;;;;5.18;3.47;;;15.40;71.60;;;;;;5081697;28;20516;-70
2023/05/21 03:02:10;;;;;;;4.05;3.42;;;15.40;71.90;;;;;;5061555;28;20055;-69
2023/05/21 03:04:37;;;;;;;5.47;3.58;;;15.40;71.90;;;;;;5079551;28;20016;-68
2023/05/21 03:07:04;;;;;;;4.75;3.28;;;15.40;72.50;;;;;;5086370;28;20031;-70
2023/05/21 03:09:30;;;;;;;4.60;3.50;;;15.40;71.90;;;;;;5078322;28;20032;-68
2023/05/21 03:11:55;;;;;;;4.20;3.40;;;15.40;71.90;;;;;;5070211;28;20630;-69
2023/05/21 03:14:21;;;;;;;4.28;3.60;;;15.40;71.90;;;;;;5070982;28;20035;-68
2023/05/21 03:16:47;;;;;;;4.55;3.45;;;15.40;71.90;;;;;;5071022;28;20528;-69
2023/05/21 03:19:14;;;;;;;4.55;3.40;;;15.40;71.90;;;;;;5071978;28;20116;-69
2023/05/21 03:21:40;;;;;;;4.43;3.15;;;15.40;72.00;;;;;;5081913;28;20036;-70
2023/05/21 03:24:06;;;;;;;3.83;3.22;;;15.50;72.00;;;;;;5078144;28;20103;-69
2023/05/21 03:26:32;;;;;;;4.32;3.55;;;15.50;71.90;;;;;;5070136;28;20092;-69
2023/05/21 03:28:58;;;;;;;5.10;2.88;;;15.50;72.00;;;;;;5075061;28;20154;-69
2023/05/21 03:31:24;;;;;;;3.90;3.05;;;15.50;72.00;;;;;;5069412;28;20020;-69
2023/05/21 03:33:51;;;;;;;4.63;3.42;;;15.50;71.90;;;;;;5076811;28;20020;-70
2023/05/21 03:36:17;;;;;;;4.35;3.17;;;15.50;72.00;;;;;;5069958;28;20028;-70
2023/05/21 03:38:42;;;;;;;4.63;3.55;;;15.50;72.20;;;;;;5076261;28;20038;-68
2023/05/21 03:41:09;;;;;;;4.35;3.70;;;15.50;72.20;;;;;;5073750;28;20028;-69
2023/05/21 03:43:34;;;;;;;3.92;3.30;;;15.50;72.30;;;;;;5072605;28;20033;-68
2023/05/21 03:46:00;;;;;;;5.20;3.65;;;15.50;72.30;;;;;;5079371;28;20082;-68
2023/05/21 03:48:25;;;;;;;4.82;3.78;;;15.50;73.10;;;;;;5078322;28;20032;-69
2023/05/21 03:50:51;;;;;;;4.57;3.65;;;15.50;72.60;;;;;;5070809;28;20021;-68
2023/05/21 03:53:17;;;;;;;4.85;3.70;;;15.50;72.70;;;;;;5064590;28;20033;-68
2023/05/21 03:55:42;;;;;;;4.47;3.60;;;15.50;72.90;;;;;;5073773;28;20063;-68
2023/05/21 03:58:09;;;;;;;4.05;3.65;;;15.50;72.80;;;;;;5072368;28;20024;-68
2023/05/21 04:00:36;;;;;;;4.53;3.63;;;15.50;72.90;;;;;;5069655;28;20505;-68
2023/05/21 04:03:02;;;;;;;4.80;3.90;;;15.50;73.00;;;;;;5072477;28;20096;-68
2023/05/21 04:05:28;;;;;;;4.55;4.05;;;15.50;73.20;;;;;;5076696;28;20032;-68
2023/05/21 04:07:53;;;;;;;4.30;3.80;;;15.50;73.20;;;;;;5071737;28;20024;-69
2023/05/21 04:10:20;;;;;;;6.78;3.65;;;15.50;73.30;;;;;;5069664;28;20068;-68
2023/05/21 04:12:47;;;;;;;3.92;3.10;;;15.50;73.40;;;;;;5069889;28;20032;-68
2023/05/21 04:15:17;;;;;;;6.57;3.58;;;15.60;73.30;;;;;;5070535;28;20069;-70
2023/05/21 04:17:44;;;;;;;4.28;3.63;;;15.60;73.50;;;;;;5069882;28;20529;-70
2023/05/21 04:20:11;;;;;;;4.72;3.95;;;15.60;73.50;;;;;;5077947;28;20016;-70
2023/05/21 04:22:36;;;;;;;6.53;4.15;;;15.60;73.70;;;;;;5075955;28;20028;-69
2023/05/21 04:25:02;;;;;;;5.15;4.03;;;15.60;74.00;;;;;;5072404;28;20039;-69
2023/05/21 04:27:27;;;;;;;4.85;4.10;;;15.60;74.10;;;;;;5069564;28;20032;-70
2023/05/21 04:29:53;;;;;;;5.38;4.10;;;15.50;74.50;;;;;;5077268;28;20047;-69
2023/05/21 04:32:19;;;;;;;4.95;4.20;;;15.50;74.40;;;;;;5070996;28;20039;-69
2023/05/21 04:34:44;;;;;;;4.40;3.58;;;15.50;74.60;;;;;;5070933;28;20029;-69
2023/05/21 04:37:10;;;;;;;5.00;3.90;;;15.50;74.60;;;;;;5069189;28;20036;-70
2023/05/21 04:39:36;;;;;;;4.78;3.90;;;15.50;74.70;;;;;;5069706;28;20016;-70
2023/05/21 04:42:02;;;;;;;4.00;3.50;;;15.50;74.90;;;;;;5069654;28;20028;-69
2023/05/21 04:44:28;;;;;;;4.45;3.47;;;15.50;74.90;;;;;;5070212;28;20040;-69
2023/05/21 04:46:56;;;;;;;5.22;4.03;;;15.60;74.90;;;;;;5070965;28;20027;-69
2023/05/21 04:49:21;;;;;;;6.40;4.07;;;15.60;74.90;;;;;;5074915;28;20028;-69
2023/05/21 04:51:48;;;;;;;5.43;3.90;;;15.60;75.00;;;;;;5073952;28;20527;-69
2023/05/21 04:54:14;;;;;;;5.07;3.80;;;15.60;75.00;;;;;;5073350;28;20016;-69
2023/05/21 04:56:39;;;;;;;5.00;4.20;;;15.60;75.10;;;;;;5073637;28;20040;-69
2023/05/21 04:59:05;;;;;;;6.10;4.03;;;15.60;75.30;;;;;;5073386;28;20058;-69
2023/05/21 05:01:34;;;;;;;5.82;4.00;;;15.60;75.40;;;;;;5071141;28;20025;-69
2023/05/21 05:03:59;;;;;;;6.28;3.80;;;15.60;75.50;;;;;;5088919;28;20015;-71
2023/05/21 05:06:25;;;;;;;5.90;4.10;;;15.60;75.70;;;;;;5073318;28;20020;-69
2023/05/21 05:08:51;;;;;;;6.22;4.53;;;15.60;75.90;;;;;;5072981;28;20025;-70
2023/05/21 05:11:16;;;;;;;4.82;4.22;;;15.60;76.00;;;;;;5072650;28;20124;-68
2023/05/21 05:13:42;;;;;;;5.90;4.07;;;15.50;76.10;;;;;;5071849;28;20391;-68
2023/05/21 05:16:08;;;;;;;5.57;3.70;;;15.60;76.20;;;;;;5069550;28;20037;-69
2023/05/21 05:18:34;;;;;;;4.57;3.60;;;15.60;76.30;;;;;;5072593;28;20672;-70
2023/05/21 05:21:00;;;;;;;4.95;3.67;;;15.60;76.20;;;;;;5073069;28;20104;-69
2023/05/21 05:23:26;;;;;;;6.68;3.83;;;15.60;76.20;;;;;;5083271;28;20364;-68
2023/05/21 05:25:51;;;;;;;4.95;3.80;;;15.70;76.20;;;;;;5084510;28;20028;-69
2023/05/21 05:28:17;;;;;;;5.93;4.43;;;15.70;76.30;;;;;;5059342;28;20033;-69
2023/05/21 05:30:43;;;;;;;5.72;4.18;;;15.70;76.30;;;;;;5064230;28;20479;-68
2023/05/21 05:33:08;;;;;;;5.88;4.38;;;15.70;76.50;;;;;;5066868;28;20031;-69
2023/05/21 05:35:34;;;;;;;6.18;4.40;;;15.70;76.50;;;;;;5066191;28;20394;-68
2023/05/21 05:37:59;;;;;;;4.72;4.05;;;15.70;76.80;;;;;;5068813;28;20107;-68
2023/05/21 05:40:25;;;;;;;4.85;4.15;;;15.70;76.90;;;;;;5083112;28;20024;-69
2023/05/21 05:42:51;;;;;;;5.82;4.00;;;15.70;76.90;;;;;;5068993;28;20028;-69
2023/05/21 05:45:17;;;;;;;4.90;4.10;;;15.80;76.80;;;;;;5057621;28;20108;-69
2023/05/21 05:47:43;;;;;;;6.60;4.60;;;15.80;77.00;;;;;;5069007;28;20024;-68
2023/05/21 05:50:09;;;;;;;7.53;5.10;;;15.80;77.30;;;;;;5068717;28;20070;-68
2023/05/21 05:52:35;;;;;;;6.05;4.70;;;15.80;77.40;;;;;;5060093;28;20017;-68
2023/05/21 05:55:01;;;;;;;6.35;4.53;;;15.80;77.40;;;;;;5052894;28;20112;-67
2023/05/21 05:57:26;;;;;;;5.57;4.35;;;15.80;77.60;;;;;;5065881;28;20023;-69
2023/05/21 05:59:52;;;;;;;5.57;4.35;;;15.80;77.50;;;;;;5067580;28;20043;-68
2023/05/21 06:02:17;;;;;;;6.53;4.40;;;15.80;77.40;;;;;;5060938;28;20021;-68
2023/05/21 06:04:43;;;;;;;5.93;4.50;;;15.80;77.50;;;;;;5058598;28;20059;-67
2023/05/21 06:07:08;;;;;;;5.00;4.10;;;15.80;77.40;;;;;;5070033;28;20081;-69
2023/05/21 06:09:34;;;;;;;5.60;4.30;;;15.90;77.40;;;;;;5061756;28;20021;-67
2023/05/21 06:12:00;;;;;;;6.30;5.03;;;15.90;77.40;;;;;;5072299;28;20036;-67
2023/05/21 06:14:25;;;;;;;7.60;4.75;;;15.90;77.90;;;;;;5061656;28;20046;-68
2023/05/21 06:16:51;;;;;;;6.47;4.78;;;15.90;77.80;;;;;;5067676;28;20503;-68
2023/05/21 06:19:16;;;;;;;5.75;4.50;;;16.00;77.70;;;;;;5061225;28;20036;-67
2023/05/21 06:21:42;;;;;;;5.07;4.07;;;16.00;77.50;;;;;;5068817;28;20040;-67
2023/05/21 06:24:07;;;;;;;6.53;5.00;;;16.10;77.20;;;;;;5068126;28;20103;-68
2023/05/21 06:26:33;;;;;;;6.00;4.57;;;16.20;77.10;;;;;;5065771;28;20032;-69
2023/05/21 06:28:58;;;;;;;5.53;4.22;;;16.20;77.00;;;;;;5062506;28;20021;-70
2023/05/21 06:31:24;;;;;;;5.13;4.20;;;16.30;76.80;;;;;;5068323;28;20090;-68
2023/05/21 06:33:50;;;;;;;6.25;4.70;;;16.40;76.60;;;;;;5058878;28;20502;-69
2023/05/21 06:36:16;;;;;;;6.82;4.85;;;16.50;76.30;;;;;;5063075;28;20078;-69
2023/05/21 06:38:41;;;;;;;5.60;3.75;;;16.60;76.20;;;;;;5061802;28;20393;-69
2023/05/21 06:41:07;;;;;;;6.53;4.65;;;16.70;75.90;;;;;;5061994;28;20035;-68
2023/05/21 06:43:33;;;;;;;4.90;4.05;;;16.70;75.90;;;;;;5070693;28;20026;-69
2023/05/21 06:46:00;;;;;;;5.70;4.32;;;16.80;75.80;;;;;;5064387;28;20028;-68
2023/05/21 06:48:25;;;;;;;5.82;4.15;;;16.90;75.40;;;;;;5057883;28;20017;-68
2023/05/21 06:50:51;;;;;;;6.88;4.53;;;17.00;75.20;;;;;;5067750;28;20077;-68
2023/05/21 06:53:17;;;;;;;5.85;4.40;;;17.20;74.80;;;;;;5063255;28;20024;-70
2023/05/21 06:55:43;;;;;;;6.10;4.60;;;17.40;74.30;;;;;;5059530;28;20119;-70
2023/05/21 06:58:12;;;;;;;7.32;5.28;;;17.50;73.70;;;;;;5066401;28;20478;-69
2023/05/21 07:00:38;;;;;;;5.15;4.53;;;17.70;73.20;;;;;;5064088;28;20040;-70
2023/05/21 07:03:03;;;;;;;6.47;5.45;;;17.90;72.80;;;;;;5078114;28;20751;-68
2023/05/21 07:05:29;;;;;;;5.85;3.88;;;18.10;72.40;;;;;;5082011;28;20498;-68
2023/05/21 07:07:55;;;;;;;6.38;4.53;;;18.20;71.90;;;;;;5087927;28;20154;-69
2023/05/21 07:10:20;;;;;;;6.00;4.82;;;18.50;71.30;;;;;;5070678;28;20119;-72
2023/05/21 07:12:46;;;;;;;6.00;4.85;;;18.70;70.40;;;;;;5071150;28;20028;-68
2023/05/21 07:15:12;;;;;;;6.53;4.88;;;18.80;69.90;;;;;;5071517;28;20452;-68
2023/05/21 07:17:37;;;;;;;5.65;4.93;;;18.90;69.50;;;;;;5079649;28;20031;-69
2023/05/21 07:20:10;;;;;;;7.28;4.70;;;19.10;69.00;;;;;;5076760;28;20030;-70
2023/05/21 07:22:37;;;;;;;8.40;4.80;;;19.20;68.60;;;;;;5080191;28;20438;-68
2023/05/21 07:25:04;;;;;;;5.57;4.70;;;19.20;68.40;;;;;;5077677;28;20475;-70
2023/05/21 07:27:29;;;;;;;6.95;4.75;;;19.20;68.30;;;;;;5070962;28;20570;-69
2023/05/21 07:29:55;;;;;;;6.35;4.88;;;19.30;68.20;;;;;;5076978;28;20099;-68
2023/05/21 07:32:20;;;;;;;6.68;5.43;;;19.30;68.00;;;;;;5081465;28;20081;-68
2023/05/21 07:34:46;;;;;;;5.60;4.40;;;19.30;67.70;;;;;;5074923;28;20535;-69
2023/05/21 07:37:12;;;;;;;5.78;4.70;;;19.40;67.70;;;;;;5071768;28;20506;-69
2023/05/21 07:39:38;;;;;;;5.57;4.97;;;19.60;67.30;;;;;;5069122;28;20025;-69
2023/05/21 07:42:04;;;;;;;7.35;5.60;;;19.70;67.00;;;;;;5073308;28;20062;-69
2023/05/21 07:44:30;;;;;;;7.55;5.05;;;19.70;66.70;;;;;;5074673;28;20082;-70
2023/05/21 07:46:56;;;;;;;7.75;5.10;;;19.80;66.70;;;;;;5071721;28;20032;-69
2023/05/21 07:49:22;;;;;;;7.65;5.68;;;19.90;66.40;;;;;;5068317;28;20029;-69
2023/05/21 07:51:48;;;;;;;6.68;4.70;;;19.80;65.90;;;;;;5069922;28;20052;-70
2023/05/21 07:54:14;;;;;;;7.75;5.10;;;19.70;66.00;;;;;;5069065;28;20024;-68
2023/05/21 07:56:39;;;;;;;8.15;6.10;;;19.70;66.20;;;;;;5072894;28;20036;-68
2023/05/21 07:59:05;;;;;;;5.90;5.00;;;19.70;66.00;;;;;;5069986;28;20479;-68
2023/05/21 08:01:31;;;;;;;6.18;5.20;;;19.80;66.10;;;;;;5069303;28;20020;-69
2023/05/21 08:04:00;;;;;;;6.05;4.40;;;19.90;66.00;;;;;;5076390;28;20020;-69
2023/05/21 08:06:26;;;;;;;6.57;5.13;;;19.90;66.00;;;;;;5073607;28;20078;-68
2023/05/21 08:08:53;;;;;;;7.72;5.60;;;20.00;66.10;;;;;;5069168;28;20021;-69
2023/05/21 08:11:18;;;;;;;6.15;4.80;;;19.90;65.90;;;;;;5072483;28;20035;-69
2023/05/21 08:13:44;;;;;;;6.30;4.57;;;20.10;65.80;;;;;;5069799;28;20025;-68
2023/05/21 08:16:10;;;;;;;6.50;4.78;;;20.20;65.80;;;;;;5070165;28;20043;-69
2023/05/21 08:18:35;;;;;;;6.30;5.25;;;20.40;65.50;;;;;;5077950;28;20090;-70
2023/05/21 08:21:01;;;;;;;6.82;5.28;;;20.50;64.90;;;;;;5076500;28;20016;-68
2023/05/21 08:23:26;;;;;;;6.63;5.35;;;20.50;64.60;;;;;;5078454;28;20024;-67
2023/05/21 08:25:52;;;;;;;9.02;6.00;;;20.50;64.50;;;;;;5072875;28;20028;-69
2023/05/21 08:28:18;;;;;;;6.43;5.03;;;20.50;64.40;;;;;;5084066;28;20047;-68
2023/05/21 08:30:43;;;;;;;7.25;5.22;;;20.50;64.40;;;;;;5071539;28;20134;-68
2023/05/21 08:33:09;;;;;;;8.02;5.82;;;20.50;64.40;;;;;;5082952;28;20028;-70
2023/05/21 08:35:34;;;;;;;8.68;5.40;;;20.60;64.10;;;;;;5071569;28;20081;-68
2023/05/21 08:38:00;;;;;;;7.63;5.18;;;20.70;64.10;;;;;;5072454;28;20024;-71
2023/05/21 08:40:25;;;;;;;8.50;5.60;;;20.80;63.70;;;;;;5068861;28;20025;-68
2023/05/21 08:42:51;;;;;;;5.70;4.70;;;20.90;63.50;;;;;;5084346;28;20024;-68
2023/05/21 08:45:21;;;;;;;8.23;5.38;;;21.00;63.30;;;;;;5069153;28;20025;-69
2023/05/21 08:47:52;;;;;;;7.72;5.93;;;21.10;63.30;;;;;;5071303;28;20023;-70
2023/05/21 08:50:18;;;;;;;10.65;5.93;;;21.20;62.80;;;;;;5077592;28;20025;-69
2023/05/21 08:52:44;;;;;;;8.85;6.90;;;21.10;62.90;;;;;;5069971;28;20016;-70
2023/05/21 08:55:09;;;;;;;6.93;5.80;;;21.20;62.70;;;;;;5066118;28;20112;-70
2023/05/21 08:57:35;;;;;;;6.72;5.07;;;21.20;62.70;;;;;;5059420;28;20502;-67
2023/05/21 09:00:03;;;;;;;9.18;5.85;;;21.30;62.70;;;;;;5068834;28;20033;-68
2023/05/21 09:02:32;;;;;;;6.88;5.57;;;21.50;62.50;;;;;;5062249;28;20620;-68
2023/05/21 09:05:02;;;;;;;6.43;5.47;;;21.60;62.10;;;;;;5076652;28;20046;-69
2023/05/21 09:07:29;;;;;;;6.22;4.70;;;21.70;62.00;;;;;;5071629;28;20115;-68
2023/05/21 09:10:07;;;;;;;7.40;5.20;;;21.90;61.70;;;;;;5072878;28;20032;-68
2023/05/21 09:12:34;;;;;;;6.75;5.20;;;22.00;61.40;;;;;;5069271;28;20102;-70
2023/05/21 09:15:00;;;;;;;7.47;5.20;;;22.10;61.30;;;;;;5068650;28;20067;-68
2023/05/21 09:17:26;;;;;;;6.15;5.10;;;22.20;61.10;;;;;;5070881;28;20027;-69
2023/05/21 09:20:11;;;;;;;7.70;4.93;;;22.20;60.70;;;;;;5070053;28;20032;-68
2023/05/21 09:22:41;;;;;;;8.13;6.15;;;22.20;60.50;;;;;;5067724;28;20024;-69
2023/05/21 09:25:07;;;;;;;8.02;6.55;;;22.20;60.40;;;;;;5068767;28;20032;-70
2023/05/21 09:27:33;;;;;;;7.82;6.32;;;22.10;60.30;;;;;;5071786;28;20098;-69
2023/05/21 09:30:00;;;;;;;8.18;6.80;;;22.00;60.50;;;;;;5075871;28;20119;-69
2023/05/21 09:32:25;;;;;;;8.10;6.95;;;22.00;60.50;;;;;;5070262;28;20078;-68
2023/05/21 09:34:51;;;;;;;7.18;5.85;;;22.10;60.40;;;;;;5092526;28;20024;-70
2023/05/21 09:37:17;;;;;;;7.85;6.45;;;22.10;60.30;;;;;;5077589;28;20028;-68
2023/05/21 09:39:43;;;;;;;6.95;5.60;;;22.10;60.30;;;;;;5080923;28;20048;-68
2023/05/21 09:42:08;;;;;;;9.45;7.40;;;22.30;60.40;;;;;;5072657;28;20029;-68
2023/05/21 09:44:34;;;;;;;8.20;6.35;;;22.40;59.80;;;;;;5073808;28;20542;-68
2023/05/21 09:47:01;;;;;;;8.60;6.82;;;22.50;59.60;;;;;;5072166;28;20021;-67
2023/05/21 09:49:26;;;;;;;9.38;6.85;;;22.50;59.50;;;;;;5071652;28;20101;-68
2023/05/21 09:51:56;;;;;;;8.52;6.72;;;22.50;59.50;;;;;;5072570;28;20429;-68
2023/05/21 09:54:30;;;;;;;9.40;7.00;;;22.60;59.50;;;;;;5072107;28;20036;-67
2023/05/21 09:56:56;;;;;;;8.32;6.47;;;22.40;59.50;;;;;;5078310;28;20032;-70
2023/05/21 09:59:22;;;;;;;7.75;6.20;;;22.60;59.70;;;;;;5071724;28;20025;-68
2023/05/21 10:01:51;;;;;;;10.63;7.50;;;22.60;59.70;;;;;;5077809;28;20064;-68
2023/05/21 10:04:17;;;;;;;9.30;7.78;;;22.70;59.30;;;;;;5073566;28;20021;-67
2023/05/21 10:06:46;;;;;;;11.27;8.65;;;22.50;58.90;;;;;;5072169;28;20021;-67
2023/05/21 10:09:14;;;;;;;10.10;9.00;;;22.40;59.70;;;;;;5085024;28;20059;-67
2023/05/21 10:11:43;;;;;;;9.75;7.75;;;22.30;60.20;;;;;;5077358;28;20094;-67
2023/05/21 10:14:18;;;;;;;8.90;7.00;;;22.30;60.10;;;;;;5076097;28;20039;-69
2023/05/21 10:16:46;;;;;;;10.40;8.25;;;22.50;60.30;;;;;;5071413;28;20394;-67
2023/05/21 10:19:13;;;;;;;9.52;7.43;;;22.60;59.90;;;;;;5077876;28;20028;-67
2023/05/21 10:21:39;;;;;;;9.70;7.10;;;22.80;59.70;;;;;;5070577;28;20052;-70
2023/05/21 10:24:07;;;;;;;8.38;7.00;;;22.80;59.50;;;;;;5078502;28;20032;-69
2023/05/21 10:26:34;;;;;;;10.65;8.32;;;23.00;59.50;;;;;;5078664;28;20023;-67
2023/05/21 10:29:01;;;;;;;9.05;7.45;;;22.90;59.10;;;;;;5075659;28;20028;-67
2023/05/21 10:31:28;;;;;;;10.00;7.78;;;23.00;59.10;;;;;;5063660;28;20104;-67
2023/05/21 10:33:54;;;;;;;8.85;7.40;;;23.00;58.90;;;;;;5067327;28;20046;-68
2023/05/21 10:36:20;;;;;;;10.10;8.02;;;23.10;58.80;;;;;;5068911;28;20074;-68
2023/05/21 10:38:46;;;;;;;8.40;7.20;;;23.20;58.40;;;;;;5067410;28;20024;-67
2023/05/21 10:41:15;;;;;;;12.73;10.20;;;23.40;58.50;;;;;;5065087;28;20544;-68
2023/05/21 10:43:53;;;;;;;13.40;9.40;;;23.30;57.60;;;;;;5066153;28;20047;-69
2023/05/21 10:46:22;;;;;;;9.43;7.88;;;23.00;58.30;;;;;;5069744;28;20020;-67
2023/05/21 10:48:53;;;;;;;13.43;10.38;;;23.00;58.70;;;;;;5072459;28;20081;-69
2023/05/21 10:51:22;;;;;;;11.65;8.68;;;22.90;58.30;;;;;;5069473;28;20111;-67
2023/05/21 10:54:13;;;;;;;8.85;7.40;;;22.80;59.40;;;;;;5073806;28;20370;-67
2023/05/21 10:56:45;;;;;;;10.98;9.70;;;23.00;59.40;;;;;;5066012;28;20028;-69
2023/05/21 10:59:20;;;;;;;12.43;10.07;;;22.90;58.60;;;;;;5073689;28;20044;-67
2023/05/21 11:01:48;;;;;;;15.40;11.30;;;22.90;59.00;;;;;;5066081;28;20020;-68
2023/05/21 11:04:16;;;;;;;9.43;8.15;;;22.80;58.80;;;;;;5072008;28;20039;-67
2023/05/21 11:06:49;;;;;;;11.07;8.77;;;22.70;59.50;;;;;;5071020;28;20017;-67
2023/05/21 11:09:15;;;;;;;8.90;7.55;;;22.90;59.40;;;;;;5071890;28;20020;-67
2023/05/21 11:11:43;;;;;;;9.90;8.52;;;23.10;59.10;;;;;;5069350;28;20031;-67
2023/05/21 11:14:33;;;;;;;9.35;7.20;;;23.30;58.60;;;;;;5071646;28;20383;-68
2023/05/21 11:17:14;;;;;;;11.73;8.90;;;23.50;58.30;;;;;;5067360;28;20028;-69
2023/05/21 11:19:47;;;;;;;11.13;9.10;;;23.50;57.70;;;;;;5070573;28;20021;-70
2023/05/21 11:22:25;;;;;;;10.40;8.43;;;23.50;57.80;;;;;;5065649;28;20024;-70
2023/05/21 11:24:52;;;;;;;11.25;8.82;;;23.60;57.70;;;;;;5068651;28;20028;-71
2023/05/21 11:27:34;;;;;;;10.38;8.45;;;23.50;58.30;;;;;;5067460;28;20556;-70
2023/05/21 11:30:04;;;;;;;15.27;10.15;;;23.40;57.90;;;;;;5066593;28;20502;-70
2023/05/21 11:32:30;;;;;;;11.73;9.30;;;23.50;57.80;;;;;;5065947;28;20048;-70
2023/05/21 11:34:59;;;;;;;9.18;7.90;;;23.30;58.00;;;;;;5073360;28;20087;-70
2023/05/21 11:37:27;;;;;;;10.20;8.13;;;23.40;58.50;;;;;;5068661;28;20414;-72
2023/05/21 11:39:54;;;;;;;9.75;7.60;;;23.60;58.10;;;;;;5070286;28;20509;-72
2023/05/21 11:42:30;;;;;;;13.30;8.27;;;23.80;57.70;;;;;;5071826;28;20024;-71
2023/05/21 11:45:00;;;;;;;9.85;7.38;;;24.00;57.30;;;;;;5068637;28;20027;-70
2023/05/21 11:47:27;;;;;;;9.90;7.82;;;24.20;57.00;;;;;;5071216;28;20387;-71
2023/05/21 11:49:53;;;;;;;9.52;8.15;;;24.30;56.50;;;;;;5072850;28;20483;-70
2023/05/21 11:52:19;;;;;;;7.70;6.70;;;24.40;56.60;;;;;;5070883;28;20043;-71
2023/05/21 11:54:50;;;;;;;7.90;6.70;;;24.50;56.30;;;;;;5070934;28;20031;-70
2023/05/21 11:57:18;;;;;;;9.05;7.80;;;24.70;56.40;;;;;;5068715;28;20028;-70
2023/05/21 11:59:44;;;;;;;9.85;8.43;;;24.90;55.80;;;;;;5070200;28;20116;-70
2023/05/21 12:02:15;;;;;;;8.88;7.50;;;24.80;55.50;;;;;;5066178;28;20028;-70
2023/05/21 12:04:41;;;;;;;8.87;7.30;;;24.80;55.40;;;;;;5073393;28;20032;-71
2023/05/21 12:07:08;;;;;;;10.15;7.75;;;24.90;55.30;;;;;;5059888;28;20086;-69
2023/05/21 12:09:40;;;;;;;7.45;6.35;;;25.10;55.70;;;;;;5061812;28;20113;-70
2023/05/21 12:12:10;;;;;;;7.95;7.03;;;25.20;55.00;;;;;;5056246;28;20103;-71
2023/05/21 12:14:36;;;;;;;8.60;6.90;;;25.40;54.80;;;;;;5078522;28;20016;-70
2023/05/21 12:17:09;;;;;;;10.32;7.50;;;25.40;54.50;;;;;;5065835;28;20032;-70
2023/05/21 12:19:36;;;;;;;9.50;6.95;;;25.50;54.50;;;;;;5064821;28;20051;-72
2023/05/21 12:22:02;;;;;;;9.02;6.85;;;25.60;54.40;;;;;;5055423;28;20025;-72
2023/05/21 12:24:29;;;;;;;9.95;7.65;;;25.60;54.20;;;;;;5062489;28;20088;-68
2023/05/21 12:26:58;;;;;;;9.20;7.30;;;25.70;53.90;;;;;;5063966;28;20044;-69
2023/05/21 12:29:30;;;;;;;9.48;8.48;;;25.40;54.00;;;;;;5060497;28;20016;-68
2023/05/21 12:32:00;;;;;;;10.02;6.80;;;25.30;54.10;;;;;;5065482;28;20036;-68
2023/05/21 12:34:38;;;;;;;9.98;7.60;;;25.50;54.60;;;;;;5066660;28;20025;-68
2023/05/21 12:37:05;;;;;;;8.25;7.00;;;25.60;54.20;;;;;;5069953;28;20031;-69
2023/05/21 12:39:31;;;;;;;10.60;7.90;;;25.80;54.00;;;;;;5060920;28;20149;-69
2023/05/21 12:41:57;;;;;;;10.27;7.22;;;26.10;53.40;;;;;;5061836;28;20096;-68
2023/05/21 12:44:23;;;;;;;11.95;8.50;;;26.30;53.10;;;;;;5058190;28;20113;-68